Time;durP1;ratioP1;P1;durP2;ratioP2;P2;SDS_P1;SDS_P2;PMS_P1;PMS_P2;Temp;Humidity;BMP_temperature;BMP_pressure;BME280_temperature;BME280_humidity;BME280_pressure;Samples;Min_cycle;Max_cycle;Signal;HPM_P1;HPM_P2
2023/05/31 00:01:35;;;;;;;6.13;3.70;;;;;;;10.98;92.23;96864.69;7400124;19;20727;-73
2023/05/31 00:04:02;;;;;;;4.00;2.50;;;;;;;10.69;91.51;96828.34;7398606;19;20884;-73
2023/05/31 00:06:29;;;;;;;5.93;2.87;;;;;;;10.57;91.35;96836.91;7402942;19;20373;-73
2023/05/31 00:08:56;;;;;;;6.80;4.50;;;;;;;10.61;90.08;96805.31;7398614;19;20403;-73
2023/05/31 00:11:23;;;;;;;4.40;3.00;;;;;;;10.80;89.19;96844.63;7399264;19;20373;-73
2023/05/31 00:13:50;;;;;;;4.10;2.87;;;;;;;10.88;90.00;96851.78;7396450;19;20792;-73
2023/05/31 00:16:17;;;;;;;5.13;2.70;;;;;;;10.86;88.26;96848.69;7399920;19;20365;-73
2023/05/31 00:19:04;;;;;;;5.73;2.80;;;;;;;10.57;89.61;96833.47;7399130;19;20808;-73
2023/05/31 00:21:31;;;;;;;3.20;3.00;;;;;;;10.60;88.58;96832.84;7399437;19;20399;-73
2023/05/31 00:23:58;;;;;;;2.80;2.50;;;;;;;10.89;85.67;96850.69;7396780;19;20928;-73
2023/05/31 00:26:25;;;;;;;3.37;2.53;;;;;;;10.91;86.54;96859.84;7398370;19;20392;-73
2023/05/31 00:28:53;;;;;;;4.20;2.50;;;;;;;10.82;85.40;96840.59;7399833;19;20377;-73
2023/05/31 00:31:20;;;;;;;5.90;3.07;;;;;;;10.78;83.73;96830.94;7396563;19;20384;-73
2023/05/31 00:33:47;;;;;;;2.70;2.50;;;;;;;11.19;82.23;96852.31;7397262;19;20969;-73
2023/05/31 00:36:14;;;;;;;4.53;2.30;;;;;;;11.08;81.19;96842.38;7397455;19;20424;-73
2023/05/31 00:38:41;;;;;;;2.73;2.10;;;;;;;10.97;81.86;96836.66;7400102;19;20400;-73
2023/05/31 00:41:09;;;;;;;3.90;2.70;;;;;;;10.89;85.05;96856.75;7396990;19;20705;-73
2023/05/31 00:43:37;;;;;;;3.40;2.50;;;;;;;10.85;85.13;96863.00;7396900;19;20429;-72
2023/05/31 00:46:04;;;;;;;4.07;3.03;;;;;;;10.92;85.17;96855.34;7397355;19;20753;-73
2023/05/31 00:48:32;;;;;;;2.87;2.50;;;;;;;10.72;84.27;96848.09;7398602;19;20376;-73
2023/05/31 00:51:01;;;;;;;4.20;2.60;;;;;;;10.85;83.04;96860.34;7396310;19;20372;-73
2023/05/31 00:53:28;;;;;;;3.27;2.80;;;;;;;10.99;82.35;96860.16;7396698;19;20408;-73
2023/05/31 00:55:55;;;;;;;3.53;3.23;;;;;;;10.83;81.67;96838.72;7396940;19;20731;-73
2023/05/31 00:58:24;;;;;;;4.17;2.50;;;;;;;11.24;80.00;96857.44;7398222;19;20904;-73
2023/05/31 01:00:51;;;;;;;4.73;2.67;;;;;;;11.10;79.69;96832.28;7396749;19;20359;-73
2023/05/31 01:03:20;;;;;;;3.70;3.37;;;;;;;11.27;79.47;96856.03;7396557;19;21064;-73
2023/05/31 01:05:47;;;;;;;3.20;2.80;;;;;;;11.10;79.89;96833.06;7397073;19;20417;-73
2023/05/31 01:08:16;;;;;;;5.90;2.47;;;;;;;11.12;80.30;96846.75;7398028;19;20752;-73
2023/05/31 01:10:44;;;;;;;5.37;2.93;;;;;;;11.08;79.76;96856.38;7395077;19;20421;-74
2023/05/31 01:13:34;;;;;;;4.67;3.20;;;;;;;11.06;79.75;96826.03;7397163;19;20510;-73
2023/05/31 01:16:16;;;;;;;3.90;2.83;;;;;;;10.83;80.35;96825.50;7399083;19;20733;-74
2023/05/31 01:18:54;;;;;;;2.67;2.47;;;;;;;10.97;78.95;96833.25;7396895;19;20368;-73
2023/05/31 01:21:32;;;;;;;3.93;2.80;;;;;;;11.21;79.00;96852.75;7398612;19;20440;-73
2023/05/31 01:24:24;;;;;;;3.03;2.67;;;;;;;11.30;78.30;96850.09;7395315;19;20436;-73
2023/05/31 01:26:58;;;;;;;3.43;3.03;;;;;;;11.23;79.13;96863.84;7396448;19;20408;-73
2023/05/31 01:29:27;;;;;;;5.10;3.40;;;;;;;11.22;79.17;96858.88;7398730;19;20394;-73
2023/05/31 01:31:55;;;;;;;4.80;4.30;;;;;;;11.13;79.43;96866.81;7395335;19;20750;-72
2023/05/31 01:34:22;;;;;;;4.30;2.90;;;;;;;11.05;79.24;96843.78;7398220;19;20373;-72
2023/05/31 01:36:49;;;;;;;5.03;3.17;;;;;;;11.17;79.24;96865.09;7397982;19;20345;-72
2023/05/31 01:39:16;;;;;;;3.60;2.77;;;;;;;10.94;79.14;96837.28;7394969;19;20372;-72
2023/05/31 01:41:46;;;;;;;3.63;3.20;;;;;;;11.09;79.77;96857.97;7396370;19;20395;-73
2023/05/31 01:44:18;;;;;;;4.40;3.03;;;;;;;11.20;79.96;96863.66;7395010;19;20721;-73
2023/05/31 01:46:46;;;;;;;6.13;3.40;;;;;;;11.04;80.49;96874.00;7396878;19;20753;-72
2023/05/31 01:49:13;;;;;;;3.63;3.13;;;;;;;10.73;80.97;96847.75;7395220;19;20516;-72
2023/05/31 01:51:43;;;;;;;5.97;3.10;;;;;;;10.62;81.29;96825.38;7395494;19;20384;-72
2023/05/31 01:54:10;;;;;;;3.40;3.10;;;;;;;10.66;82.12;96832.34;7396408;19;20344;-73
2023/05/31 01:56:40;;;;;;;2.63;2.40;;;;;;;10.73;81.60;96857.56;7397115;19;20888;-73
2023/05/31 01:59:08;;;;;;;4.40;3.23;;;;;;;10.77;81.27;96850.56;7395274;19;20365;-72
2023/05/31 02:01:36;;;;;;;3.43;2.50;;;;;;;10.74;82.39;96859.13;7396473;19;20719;-73
2023/05/31 02:04:03;;;;;;;4.40;2.53;;;;;;;10.65;81.87;96853.84;7394892;19;20928;-72
2023/05/31 02:06:31;;;;;;;5.17;3.00;;;;;;;10.44;81.76;96824.63;7396162;19;20928;-72
2023/05/31 02:08:58;;;;;;;4.43;3.00;;;;;;;10.72;82.22;96858.66;7396373;19;20864;-73
2023/05/31 02:11:27;;;;;;;7.10;3.83;;;;;;;10.81;82.00;96867.34;7395519;19;20357;-72
2023/05/31 02:13:55;;;;;;;6.67;3.30;;;;;;;10.54;82.38;96831.44;7393125;19;20456;-72
2023/05/31 02:16:22;;;;;;;5.40;3.43;;;;;;;10.68;82.66;96853.19;7396550;19;20428;-72
2023/05/31 02:18:51;;;;;;;3.57;3.27;;;;;;;10.64;82.97;96853.06;7396344;19;20349;-72
2023/05/31 02:21:22;;;;;;;6.87;4.10;;;;;;;10.56;82.62;96853.84;7398197;19;20432;-72
2023/05/31 02:23:49;;;;;;;2.77;2.50;;;;;;;10.64;82.88;96868.91;7401223;19;20415;-73
2023/05/31 02:26:17;;;;;;;4.90;3.03;;;;;;;10.57;83.59;96852.00;7400949;19;20376;-72
2023/05/31 02:28:44;;;;;;;3.07;2.40;;;;;;;10.66;84.13;96866.72;7402502;19;20376;-73
2023/05/31 02:31:11;;;;;;;3.00;2.73;;;;;;;10.71;84.06;96867.69;7400113;19;20396;-73
2023/05/31 02:33:41;;;;;;;8.43;2.80;;;;;;;10.39;85.64;96830.06;7399970;19;20457;-73
2023/05/31 02:36:09;;;;;;;5.30;3.20;;;;;;;10.74;84.86;96867.81;7400671;19;20405;-73
2023/05/31 02:38:37;;;;;;;4.37;2.63;;;;;;;10.60;84.85;96867.22;7402224;19;20940;-72
2023/05/31 02:41:04;;;;;;;4.33;3.00;;;;;;;10.59;83.79;96849.81;7400623;19;20745;-72
2023/05/31 02:43:31;;;;;;;3.73;3.13;;;;;;;10.20;83.87;96793.34;7400092;19;20464;-72
2023/05/31 02:46:01;;;;;;;3.47;3.17;;;;;;;10.69;83.94;96861.94;7400710;19;20427;-72
2023/05/31 02:48:29;;;;;;;3.63;3.30;;;;;;;10.61;83.89;96858.19;7402327;19;20367;-72
2023/05/31 02:50:57;;;;;;;4.10;3.47;;;;;;;10.55;83.49;96847.00;7400296;19;20929;-72
2023/05/31 02:53:48;;;;;;;4.47;4.03;;;;;;;10.47;84.06;96845.16;7397352;19;20703;-72
2023/05/31 02:56:20;;;;;;;7.33;2.87;;;;;;;10.33;84.35;96841.88;7401824;19;20392;-72
2023/05/31 02:58:53;;;;;;;4.20;3.10;;;;;;;10.35;84.66;96839.69;7400501;19;20371;-72
2023/05/31 03:01:36;;;;;;;7.20;3.10;;;;;;;10.34;85.38;96864.59;7404032;19;20343;-72
2023/05/31 03:04:25;;;;;;;5.27;3.20;;;;;;;10.42;84.81;96861.19;7402275;19;20376;-73
2023/05/31 03:06:55;;;;;;;6.77;3.33;;;;;;;10.50;84.23;96857.72;7399974;19;20400;-72
2023/05/31 03:09:22;;;;;;;2.97;2.70;;;;;;;10.39;86.41;96863.66;7401300;19;20374;-73
2023/05/31 03:11:50;;;;;;;4.47;2.40;;;;;;;10.53;85.62;96856.31;7398777;19;20455;-72
2023/05/31 03:14:19;;;;;;;4.30;2.90;;;;;;;10.63;85.68;96863.94;7401219;19;20380;-72
2023/05/31 03:16:48;;;;;;;3.80;2.60;;;;;;;10.31;85.90;96839.56;7399796;19;20400;-72
2023/05/31 03:19:15;;;;;;;3.50;2.43;;;;;;;10.37;86.02;96856.03;7401690;19;20407;-72
2023/05/31 03:21:45;;;;;;;3.03;2.83;;;;;;;10.13;88.35;96863.59;7400099;19;20420;-72
2023/05/31 03:24:12;;;;;;;6.03;2.93;;;;;;;10.10;88.68;96865.00;7401412;19;20906;-72
2023/05/31 03:26:41;;;;;;;5.23;2.90;;;;;;;9.84;89.19;96841.19;7400136;19;20373;-72
2023/05/31 03:29:08;;;;;;;10.40;3.43;;;;;;;9.42;89.71;96801.19;7401657;19;20364;-72
2023/05/31 03:31:35;;;;;;;4.17;3.77;;;;;;;9.68;89.34;96840.84;7399168;19;20353;-72
2023/05/31 03:34:02;;;;;;;5.87;3.23;;;;;;;9.76;89.53;96861.22;7400605;19;20393;-72
2023/05/31 03:36:31;;;;;;;5.10;2.57;;;;;;;9.51;90.13;96832.13;7400082;19;20368;-72
2023/05/31 03:39:01;;;;;;;4.23;3.37;;;;;;;9.65;91.03;96875.00;7401585;19;20377;-72
2023/05/31 03:41:29;;;;;;;3.30;3.00;;;;;;;9.10;93.09;96843.75;7400044;19;20409;-72
2023/05/31 03:43:56;;;;;;;5.90;2.70;;;;;;;9.12;93.83;96868.75;7399184;19;20393;-72
2023/05/31 03:46:24;;;;;;;4.23;2.97;;;;;;;9.18;94.99;96866.75;7399822;19;20379;-72
2023/05/31 03:48:53;;;;;;;8.20;3.70;;;;;;;9.07;94.94;96839.06;7398389;19;20775;-72
2023/05/31 03:51:23;;;;;;;3.80;3.40;;;;;;;9.42;93.35;96846.03;7399695;19;20448;-72
2023/05/31 03:53:50;;;;;;;6.70;3.40;;;;;;;9.78;92.39;96868.84;7396156;19;20420;-72
2023/05/31 03:56:17;;;;;;;3.03;2.83;;;;;;;9.57;92.30;96826.38;7399471;19;20459;-73
2023/05/31 03:58:44;;;;;;;3.90;2.97;;;;;;;10.03;91.42;96862.81;7398617;19;20397;-72
2023/05/31 04:01:12;;;;;;;3.83;3.37;;;;;;;10.06;92.06;96864.06;7399750;19;20362;-72
2023/05/31 04:03:39;;;;;;;6.57;3.70;;;;;;;9.74;91.78;96842.25;7395961;19;20436;-72
2023/05/31 04:06:07;;;;;;;3.63;3.33;;;;;;;9.71;92.03;96837.59;7399838;19;20455;-72
2023/05/31 04:08:35;;;;;;;4.90;3.30;;;;;;;9.63;94.23;96861.34;7398526;19;20742;-72
2023/05/31 04:11:02;;;;;;;8.27;4.70;;;;;;;9.82;93.07;96864.47;7400276;19;20388;-72
2023/05/31 04:13:30;;;;;;;9.60;5.30;;;;;;;9.87;94.13;96866.97;7397587;19;20412;-72
2023/05/31 04:15:57;;;;;;;4.77;3.70;;;;;;;9.68;95.31;96832.16;7399821;19;20464;-72
2023/05/31 04:18:24;;;;;;;6.70;3.27;;;;;;;10.23;94.05;96873.91;7399060;19;20427;-72
2023/05/31 04:20:51;;;;;;;5.60;4.57;;;;;;;9.96;95.27;96825.50;7399582;19;20357;-72
2023/05/31 04:23:18;;;;;;;6.47;3.17;;;;;;;10.39;96.00;96874.22;7396538;19;20444;-72
2023/05/31 04:25:47;;;;;;;3.63;3.20;;;;;;;10.32;95.58;96845.63;7399549;19;20916;-72
2023/05/31 04:28:15;;;;;;;3.80;3.27;;;;;;;10.34;95.39;96844.22;7398331;19;20398;-72
2023/05/31 04:30:44;;;;;;;9.20;3.43;;;;;;;10.51;93.57;96842.66;7400083;19;20369;-72
2023/05/31 04:33:12;;;;;;;5.70;3.40;;;;;;;10.63;93.70;96882.47;7411922;19;20447;-72
2023/05/31 04:35:40;;;;;;;4.40;3.27;;;;;;;10.54;93.63;96834.09;7418691;19;20408;-71
2023/05/31 04:38:08;;;;;;;5.60;3.00;;;;;;;10.97;91.06;96862.34;7414065;19;20905;-71
2023/05/31 04:40:35;;;;;;;4.47;3.10;;;;;;;11.01;89.71;96858.75;7399290;19;20360;-72
2023/05/31 04:43:02;;;;;;;4.70;2.80;;;;;;;11.28;88.20;96868.16;7396829;19;20560;-72
2023/05/31 04:45:32;;;;;;;3.67;3.37;;;;;;;11.57;87.61;96859.47;7398418;19;20704;-72
2023/05/31 04:48:01;;;;;;;3.07;2.73;;;;;;;11.72;86.45;96889.94;7398060;19;20384;-72
2023/05/31 04:50:29;;;;;;;3.60;2.77;;;;;;;11.82;85.72;96871.06;7399903;19;20896;-72
2023/05/31 04:52:57;;;;;;;6.10;3.30;;;;;;;12.08;84.88;96887.59;7396534;19;20439;-72
2023/05/31 04:55:26;;;;;;;3.97;3.30;;;;;;;12.35;84.57;96893.50;7399343;19;20384;-73
2023/05/31 04:57:56;;;;;;;4.50;3.13;;;;;;;12.42;84.20;96899.09;7398090;19;20454;-72
2023/05/31 05:00:23;;;;;;;4.57;2.67;;;;;;;12.67;83.07;96900.72;7396513;19;20376;-72
2023/05/31 05:03:10;;;;;;;4.87;2.77;;;;;;;12.83;83.43;96889.53;7397137;19;20453;-72
2023/05/31 05:05:41;;;;;;;4.77;2.90;;;;;;;13.09;81.13;96906.00;7396934;19;20369;-73
2023/05/31 05:08:09;;;;;;;3.80;2.87;;;;;;;13.32;81.47;96909.06;7398471;19;20369;-72
2023/05/31 05:10:38;;;;;;;3.60;2.57;;;;;;;13.15;81.93;96869.38;7396819;19;20368;-72
2023/05/31 05:13:05;;;;;;;4.50;2.50;;;;;;;13.15;83.52;96896.72;7393573;19;20420;-72
2023/05/31 05:15:33;;;;;;;7.27;3.93;;;;;;;13.06;82.91;96881.97;7396262;19;20364;-72
2023/05/31 05:18:00;;;;;;;3.53;3.00;;;;;;;13.21;82.94;96905.25;7398015;19;20916;-72
2023/05/31 05:20:28;;;;;;;4.63;3.17;;;;;;;13.24;79.92;96910.72;7396805;19;20377;-72
2023/05/31 05:22:55;;;;;;;3.97;2.97;;;;;;;13.43;79.88;96917.38;7397800;19;20440;-72
2023/05/31 05:25:22;;;;;;;5.10;2.73;;;;;;;13.43;79.86;96914.72;7397085;19;20376;-72
2023/05/31 05:27:49;;;;;;;5.40;3.20;;;;;;;13.69;79.10;96898.47;7397972;19;20726;-72
2023/05/31 05:30:17;;;;;;;3.30;3.00;;;;;;;14.10;77.76;96914.19;7395716;19;20790;-72
2023/05/31 05:32:44;;;;;;;3.97;3.00;;;;;;;13.98;77.55;96908.09;7393708;19;20826;-72
2023/05/31 05:35:11;;;;;;;5.10;2.23;;;;;;;14.25;76.92;96925.25;7396709;19;20444;-72
2023/05/31 05:37:38;;;;;;;2.73;2.50;;;;;;;14.04;75.96;96923.50;7394679;19;20903;-72
2023/05/31 05:40:07;;;;;;;4.43;2.30;;;;;;;13.96;76.12;96932.38;7396499;19;20345;-72
2023/05/31 05:42:37;;;;;;;8.40;3.00;;;;;;;13.98;76.05;96895.59;7394227;19;20456;-73
2023/05/31 05:45:08;;;;;;;4.00;2.53;;;;;;;14.10;75.16;96930.16;7396103;19;20345;-72
2023/05/31 05:47:36;;;;;;;3.23;2.90;;;;;;;14.08;73.40;96923.63;7394834;19;20373;-72
2023/05/31 05:50:05;;;;;;;14.73;3.40;;;;;;;14.10;74.46;96911.53;7396338;19;20968;-72
2023/05/31 05:52:32;;;;;;;6.93;3.07;;;;;;;14.17;72.81;96909.09;7393909;19;20440;-72
2023/05/31 05:54:59;;;;;;;5.30;2.63;;;;;;;14.61;72.87;96906.59;7396276;19;20371;-73
2023/05/31 05:57:26;;;;;;;3.20;2.70;;;;;;;14.96;72.92;96930.78;7395378;19;20698;-72
2023/05/31 06:00:09;;;;;;;4.93;2.90;;;;;;;14.83;69.99;96910.63;7396469;19;20904;-73
2023/05/31 06:02:39;;;;;;;2.70;2.50;;;;;;;15.16;69.54;96933.56;7396189;19;20396;-72
2023/05/31 06:05:07;;;;;;;4.50;2.30;;;;;;;15.21;68.99;96906.66;7394451;19;20484;-72
2023/05/31 06:07:34;;;;;;;3.40;2.90;;;;;;;15.24;67.78;96933.41;7395365;19;20906;-72
2023/05/31 06:10:02;;;;;;;10.40;3.27;;;;;;;15.54;66.79;96941.00;7393938;19;20900;-72
2023/05/31 06:12:30;;;;;;;4.07;2.90;;;;;;;15.72;67.08;96912.91;7394349;19;20431;-74
2023/05/31 06:14:59;;;;;;;3.00;2.77;;;;;;;15.91;67.22;96904.22;7394230;19;20737;-73
2023/05/31 06:17:26;;;;;;;3.30;2.40;;;;;;;16.22;65.20;96919.41;7395598;19;20365;-72
2023/05/31 06:19:54;;;;;;;6.00;3.03;;;;;;;16.73;64.58;96941.50;7394106;19;20371;-73
2023/05/31 06:22:20;;;;;;;3.87;2.50;;;;;;;16.51;63.07;96948.25;7395496;19;20480;-73
2023/05/31 06:24:48;;;;;;;5.70;2.83;;;;;;;16.28;63.10;96944.69;7393625;19;20413;-72
2023/05/31 06:27:15;;;;;;;3.10;2.70;;;;;;;16.54;63.39;96944.88;7395074;19;20369;-73
2023/05/31 06:29:44;;;;;;;4.00;2.77;;;;;;;17.01;61.95;96938.63;7393661;19;20882;-73
2023/05/31 06:32:26;;;;;;;6.43;2.77;;;;;;;16.26;61.81;96893.56;7395319;19;20420;-72
2023/05/31 06:34:53;;;;;;;7.63;2.70;;;;;;;16.72;61.28;96923.94;7393878;19;20373;-73
2023/05/31 06:37:24;;;;;;;4.77;2.60;;;;;;;16.70;61.47;96936.09;7396016;19;20739;-72
2023/05/31 06:39:53;;;;;;;5.30;2.50;;;;;;;16.98;60.68;96919.84;7394446;19;20414;-73
2023/05/31 06:42:21;;;;;;;4.93;2.60;;;;;;;17.50;62.37;96940.66;7395419;19;20516;-72
2023/05/31 06:44:54;;;;;;;6.37;4.13;;;;;;;17.40;58.59;96909.16;7394936;19;20369;-73
2023/05/31 06:47:43;;;;;;;6.60;2.53;;;;;;;17.48;58.44;96931.44;7393683;19;20381;-72
2023/05/31 06:50:12;;;;;;;6.63;3.10;;;;;;;17.32;58.21;96916.28;7397061;19;20368;-72
2023/05/31 06:53:09;;;;;;;3.03;2.47;;;;;;;17.46;58.08;96934.47;7393314;19;20430;-73
2023/05/31 06:55:42;;;;;;;3.23;2.40;;;;;;;17.16;58.71;96928.19;7393454;19;20359;-72
2023/05/31 06:58:15;;;;;;;6.90;2.60;;;;;;;17.38;57.16;96930.13;7394298;19;20385;-73
2023/05/31 07:00:43;;;;;;;5.50;2.80;;;;;;;17.79;58.60;96931.25;7393696;19;20374;-72
2023/05/31 07:03:13;;;;;;;4.20;3.20;;;;;;;17.97;57.88;96926.94;7395009;19;20955;-72
2023/05/31 07:05:43;;;;;;;4.80;2.80;;;;;;;18.10;56.97;96913.34;7393544;19;20385;-73
2023/05/31 07:08:11;;;;;;;4.30;3.20;;;;;;;17.77;56.54;96919.34;7399196;19;20373;-73
2023/05/31 07:11:01;;;;;;;5.07;3.07;;;;;;;18.04;57.32;96939.66;7403007;19;21116;-73
2023/05/31 07:13:28;;;;;;;3.63;2.50;;;;;;;18.29;57.20;96923.94;7397961;19;20450;-73
2023/05/31 07:15:55;;;;;;;5.90;3.33;;;;;;;18.39;56.78;96934.03;7401269;19;20765;-73
2023/05/31 07:18:22;;;;;;;5.90;2.50;;;;;;;18.27;57.76;96918.19;7400303;19;20434;-72
2023/05/31 07:20:50;;;;;;;3.03;2.67;;;;;;;18.49;56.17;96920.00;7401506;19;20409;-73
2023/05/31 07:23:17;;;;;;;3.87;2.63;;;;;;;18.46;55.93;96936.81;7397738;19;21028;-73
2023/05/31 07:25:44;;;;;;;3.67;3.00;;;;;;;18.86;56.38;96936.22;7401947;19;20395;-73
2023/05/31 07:28:11;;;;;;;5.43;3.00;;;;;;;19.01;55.79;96904.22;7399629;19;20382;-73
2023/05/31 07:30:38;;;;;;;4.43;3.10;;;;;;;18.22;55.65;96913.16;7401402;19;20399;-73
2023/05/31 07:33:05;;;;;;;7.60;3.10;;;;;;;18.41;56.82;96929.06;7398424;19;20438;-73
2023/05/31 07:35:32;;;;;;;3.03;2.50;;;;;;;17.98;55.86;96923.13;7400856;19;20435;-73
2023/05/31 07:37:59;;;;;;;4.63;3.27;;;;;;;17.85;56.58;96903.03;7399655;19;20369;-73
2023/05/31 07:40:26;;;;;;;3.37;2.97;;;;;;;18.69;55.63;96906.50;7400748;19;20907;-73
2023/05/31 07:42:53;;;;;;;5.47;3.47;;;;;;;19.11;55.27;96927.69;7398415;19;20441;-73
2023/05/31 07:45:20;;;;;;;9.83;2.93;;;;;;;18.52;56.12;96889.06;7401098;19;20381;-73
2023/05/31 07:47:47;;;;;;;6.00;2.50;;;;;;;19.02;54.67;96906.53;7400746;19;20372;-73
2023/05/31 07:50:15;;;;;;;4.70;2.90;;;;;;;19.25;55.17;96908.28;7400844;19;20380;-74
2023/05/31 07:52:46;;;;;;;3.90;2.50;;;;;;;19.77;54.51;96918.00;7399350;19;20433;-73
2023/05/31 07:55:13;;;;;;;5.83;3.00;;;;;;;19.88;55.02;96893.91;7402381;19;20363;-73
2023/05/31 07:57:40;;;;;;;4.10;3.10;;;;;;;19.59;51.67;96911.69;7399116;19;20744;-73
2023/05/31 08:00:08;;;;;;;7.13;3.37;;;;;;;19.65;51.30;96904.84;7400720;19;20366;-73
2023/05/31 08:02:40;;;;;;;4.67;3.00;;;;;;;19.73;51.59;96877.69;7398959;19;20424;-74
2023/05/31 08:05:08;;;;;;;6.30;3.07;;;;;;;19.99;49.97;96906.25;7400963;19;20380;-73
2023/05/31 08:07:35;;;;;;;5.37;2.80;;;;;;;19.70;50.58;96865.03;7400944;19;20342;-73
2023/05/31 08:10:03;;;;;;;5.30;3.30;;;;;;;20.10;49.49;96909.03;7397945;19;20431;-73
2023/05/31 08:12:30;;;;;;;6.50;2.87;;;;;;;19.91;48.20;96890.50;7398517;19;20792;-72
2023/05/31 08:14:57;;;;;;;3.40;2.80;;;;;;;19.86;48.50;96878.16;7398097;19;20380;-73
2023/05/31 08:17:26;;;;;;;6.10;2.90;;;;;;;19.67;48.73;96907.94;7400526;19;20340;-73
2023/05/31 08:19:53;;;;;;;4.00;3.07;;;;;;;19.95;49.15;96923.50;7396951;19;20386;-73
2023/05/31 08:22:20;;;;;;;4.43;3.00;;;;;;;19.98;48.91;96909.31;7399797;19;20430;-73
2023/05/31 08:24:47;;;;;;;6.53;3.00;;;;;;;19.70;48.66;96907.19;7398891;19;20349;-72
2023/05/31 08:27:14;;;;;;;3.67;2.87;;;;;;;19.66;49.67;96892.97;7398778;19;20765;-73
2023/05/31 08:29:41;;;;;;;6.57;3.97;;;;;;;19.65;49.40;96883.38;7397847;19;20411;-73
2023/05/31 08:32:08;;;;;;;4.80;2.97;;;;;;;19.83;49.43;96897.72;7398097;19;20411;-73
2023/05/31 08:34:35;;;;;;;4.00;2.60;;;;;;;20.43;48.25;96901.94;7395116;19;20917;-73
2023/05/31 08:37:02;;;;;;;8.53;3.23;;;;;;;20.59;48.61;96888.97;7398783;19;20366;-73
2023/05/31 08:39:30;;;;;;;4.23;3.00;;;;;;;20.85;47.87;96920.97;7398782;19;20421;-73
2023/05/31 08:42:00;;;;;;;5.80;3.50;;;;;;;20.72;48.28;96910.94;7398609;19;20421;-73
2023/05/31 08:44:30;;;;;;;5.53;3.23;;;;;;;20.43;48.58;96910.00;7395831;19;20383;-73
2023/05/31 08:47:06;;;;;;;4.50;2.90;;;;;;;20.33;48.02;96896.13;7399356;19;20343;-73
2023/05/31 08:49:35;;;;;;;5.20;3.00;;;;;;;20.90;48.05;96880.25;7399331;19;20930;-73
2023/05/31 08:52:04;;;;;;;3.50;2.57;;;;;;;20.91;47.30;96887.16;7398717;19;20767;-73
2023/05/31 08:54:32;;;;;;;3.73;3.03;;;;;;;20.70;47.67;96886.31;7395776;19;20383;-74
2023/05/31 08:57:02;;;;;;;6.30;3.90;;;;;;;21.05;47.23;96909.88;7396774;19;20426;-73
2023/05/31 08:59:30;;;;;;;8.07;3.90;;;;;;;20.74;47.60;96911.31;7398323;19;20832;-74
2023/05/31 09:01:58;;;;;;;8.03;4.00;;;;;;;20.54;47.99;96913.50;7395965;19;20426;-73
2023/05/31 09:04:25;;;;;;;10.50;3.57;;;;;;;20.71;48.15;96883.28;7398040;19;20381;-73
2023/05/31 09:06:52;;;;;;;5.10;2.80;;;;;;;21.12;48.77;96913.38;7395996;19;20725;-73
2023/05/31 09:09:19;;;;;;;6.63;3.53;;;;;;;21.14;47.91;96904.91;7397345;19;20972;-73
2023/05/31 09:11:46;;;;;;;8.30;3.63;;;;;;;20.99;48.45;96885.28;7395913;19;20382;-73
2023/05/31 09:14:13;;;;;;;4.60;2.53;;;;;;;21.24;48.39;96879.97;7396164;19;20731;-73
2023/05/31 09:16:40;;;;;;;4.97;3.43;;;;;;;21.46;47.13;96905.75;7395891;19;20344;-73
2023/05/31 09:19:07;;;;;;;6.00;3.40;;;;;;;21.43;46.49;96890.38;7397318;19;20369;-73
2023/05/31 09:21:40;;;;;;;3.73;2.70;;;;;;;21.00;47.39;96907.56;7396784;19;20378;-73
2023/05/31 09:24:08;;;;;;;4.80;2.90;;;;;;;20.79;47.71;96878.69;7397305;19;20356;-73
2023/05/31 09:26:35;;;;;;;4.53;3.10;;;;;;;20.83;47.30;96887.53;7396176;19;20386;-74
2023/05/31 09:29:07;;;;;;;5.60;2.93;;;;;;;21.80;46.99;96883.88;7399075;19;20335;-74
2023/05/31 09:31:33;;;;;;;6.37;3.70;;;;;;;21.38;46.73;96879.25;7395476;19;20920;-73
2023/05/31 09:34:00;;;;;;;5.93;2.33;;;;;;;21.03;46.53;96861.09;7395312;19;20447;-73
2023/05/31 09:36:29;;;;;;;6.43;3.43;;;;;;;21.37;46.99;96870.41;7397304;19;20351;-73
2023/05/31 09:39:04;;;;;;;6.80;4.40;;;;;;;21.46;47.62;96870.00;7397271;19;20369;-73
2023/05/31 09:41:32;;;;;;;3.90;2.70;;;;;;;22.12;47.88;96881.91;7396048;19;20389;-73
2023/05/31 09:44:00;;;;;;;3.50;2.17;;;;;;;22.01;46.33;96859.59;7397081;19;20403;-73
2023/05/31 09:46:27;;;;;;;4.30;2.90;;;;;;;21.88;47.06;96873.84;7396263;19;20381;-73
2023/05/31 09:49:05;;;;;;;5.30;3.00;;;;;;;22.01;47.26;96877.66;7399116;19;20344;-74
2023/05/31 09:51:33;;;;;;;7.60;3.53;;;;;;;21.88;46.55;96871.91;7396681;19;20455;-73
2023/05/31 09:54:06;;;;;;;5.10;3.37;;;;;;;21.82;46.45;96868.09;7392895;19;20444;-74
2023/05/31 09:56:39;;;;;;;6.30;3.00;;;;;;;21.80;46.90;96851.56;7398452;19;20355;-73
2023/05/31 09:59:07;;;;;;;3.37;3.00;;;;;;;21.20;46.61;96853.03;7397521;19;20376;-73
2023/05/31 10:01:35;;;;;;;5.27;2.93;;;;;;;21.83;46.18;96851.53;7398452;19;20345;-74
2023/05/31 10:04:04;;;;;;;4.03;3.20;;;;;;;22.01;46.57;96861.50;7400605;19;20388;-74
2023/05/31 10:06:34;;;;;;;7.03;3.57;;;;;;;21.89;45.87;96862.69;7430828;19;20418;-74
2023/05/31 10:09:02;;;;;;;6.00;2.77;;;;;;;21.45;46.33;96825.41;7430569;19;20370;-77
2023/05/31 10:11:34;;;;;;;6.53;3.03;;;;;;;22.10;46.48;96848.44;7425761;19;20793;-73
2023/05/31 10:14:08;;;;;;;5.00;2.70;;;;;;;22.31;44.74;96837.63;7391444;19;20835;-73
2023/05/31 10:16:50;;;;;;;7.37;3.37;;;;;;;22.41;45.11;96844.09;7394769;19;20429;-73
2023/05/31 10:19:24;;;;;;;4.33;2.80;;;;;;;22.94;45.58;96857.38;7396221;19;20357;-73
2023/05/31 10:21:53;;;;;;;4.47;2.57;;;;;;;21.83;45.20;96831.94;7394609;19;20782;-73
2023/05/31 10:24:25;;;;;;;5.37;3.70;;;;;;;22.44;46.37;96840.66;7397868;19;20360;-73
2023/05/31 10:27:04;;;;;;;5.57;3.00;;;;;;;22.86;45.09;96858.59;7396401;19;20886;-73
2023/05/31 10:29:51;;;;;;;3.07;2.70;;;;;;;21.85;44.31;96843.06;7395527;19;20346;-73
2023/05/31 10:32:31;;;;;;;4.43;2.83;;;;;;;22.37;44.18;96851.44;7396143;19;20427;-74
2023/05/31 10:34:59;;;;;;;3.60;3.00;;;;;;;22.69;45.19;96841.28;7394619;19;20395;-73
2023/05/31 10:37:26;;;;;;;4.33;2.90;;;;;;;22.80;43.61;96835.09;7397292;19;20411;-73
2023/05/31 10:39:57;;;;;;;4.23;2.50;;;;;;;22.94;42.77;96837.72;7395448;19;20372;-74
2023/05/31 10:42:39;;;;;;;5.80;2.90;;;;;;;22.98;43.30;96833.09;7397939;19;20931;-73
2023/05/31 10:45:15;;;;;;;4.63;2.80;;;;;;;22.71;43.62;96841.69;7403016;19;20371;-73
2023/05/31 10:47:51;;;;;;;3.77;3.00;;;;;;;22.44;43.60;96813.69;7402382;19;20883;-74
2023/05/31 10:50:20;;;;;;;5.43;2.87;;;;;;;22.53;43.57;96824.81;7405162;19;20892;-74
2023/05/31 10:52:48;;;;;;;10.77;2.93;;;;;;;22.84;43.96;96815.06;7401364;19;20394;-74
2023/05/31 10:55:23;;;;;;;3.50;3.03;;;;;;;23.55;44.36;96821.88;7401822;19;20376;-74
2023/05/31 10:57:55;;;;;;;4.13;3.47;;;;;;;22.90;42.96;96785.75;7401484;19;20923;-74
2023/05/31 11:00:23;;;;;;;2.87;2.50;;;;;;;23.46;42.69;96814.22;7402027;19;20354;-73
2023/05/31 11:02:53;;;;;;;2.90;2.57;;;;;;;23.20;41.92;96793.22;7400677;19;20425;-74
2023/05/31 11:05:24;;;;;;;3.73;2.57;;;;;;;23.72;42.41;96823.69;7400819;19;20395;-74
2023/05/31 11:07:52;;;;;;;4.17;2.50;;;;;;;23.18;41.91;96803.66;7402067;19;20392;-74
2023/05/31 11:10:32;;;;;;;3.13;2.43;;;;;;;23.17;42.65;96821.78;7400600;19;20413;-73
2023/05/31 11:13:03;;;;;;;3.57;3.03;;;;;;;22.88;42.96;96794.22;7402068;19;20428;-73
2023/05/31 11:15:42;;;;;;;4.67;3.10;;;;;;;22.55;42.42;96760.50;7398333;19;20368;-73
2023/05/31 11:18:14;;;;;;;5.20;3.17;;;;;;;23.30;41.81;96816.69;7403860;19;20351;-73
2023/05/31 11:20:41;;;;;;;6.43;3.00;;;;;;;23.13;42.00;96806.78;7400765;19;20944;-73
2023/05/31 11:23:30;;;;;;;5.03;2.90;;;;;;;23.85;41.26;96810.44;7399326;19;20393;-74
2023/05/31 11:26:13;;;;;;;5.23;3.20;;;;;;;23.60;41.06;96802.56;7402050;19;20398;-74
2023/05/31 11:29:00;;;;;;;5.57;2.43;;;;;;;23.58;41.28;96831.91;7402061;19;20341;-74
2023/05/31 11:31:49;;;;;;;4.97;2.60;;;;;;;22.97;41.76;96816.16;7400049;19;20444;-73
2023/05/31 11:34:18;;;;;;;4.73;2.73;;;;;;;23.16;41.41;96762.81;7401984;19;20764;-73
2023/05/31 11:36:46;;;;;;;4.43;3.10;;;;;;;23.63;41.17;96798.28;7400208;19;20370;-74
2023/05/31 11:39:13;;;;;;;3.30;2.60;;;;;;;24.30;41.59;96802.25;7401911;19;20384;-73
2023/05/31 11:41:40;;;;;;;4.60;2.70;;;;;;;23.65;40.15;96796.75;7400064;19;20370;-73
2023/05/31 11:44:11;;;;;;;4.23;2.50;;;;;;;24.01;40.48;96801.78;7402328;19;20385;-73
2023/05/31 11:46:41;;;;;;;6.63;3.27;;;;;;;24.59;40.61;96803.44;7401736;19;20396;-73